Time;durP1;ratioP1;P1;durP2;ratioP2;P2;SDS_P1;SDS_P2;PMS_P1;PMS_P2;Temp;Humidity;BMP_temperature;BMP_pressure;BME280_temperature;BME280_humidity;BME280_pressure;Samples;Min_cycle;Max_cycle;Signal;HPM_P1;HPM_P2
2022/06/23 00:02:20;;;;;;;1.67;0.88;;;18.90;58.30;;;;;;5011991;28;20046;-79
2022/06/23 00:04:47;;;;;;;0.98;0.88;;;18.80;58.40;;;;;;4994821;28;20083;-79
2022/06/23 00:07:24;;;;;;;1.40;1.00;;;18.80;58.40;;;;;;4994459;28;20046;-79
2022/06/23 00:09:54;;;;;;;1.73;0.80;;;18.70;58.60;;;;;;4995034;28;20065;-78
2022/06/23 00:12:26;;;;;;;1.30;0.90;;;18.70;58.60;;;;;;4995348;28;20034;-78
2022/06/23 00:15:14;;;;;;;2.28;0.90;;;18.70;59.40;;;;;;5012734;28;20040;-80
2022/06/23 00:17:44;;;;;;;0.80;0.80;;;18.70;58.90;;;;;;4994167;28;20042;-78
2022/06/23 00:20:19;;;;;;;1.40;0.90;;;18.70;59.10;;;;;;4994121;28;20437;-78
2022/06/23 00:22:49;;;;;;;1.50;1.10;;;18.60;59.10;;;;;;5012023;28;20041;-78
2022/06/23 00:25:31;;;;;;;1.00;0.90;;;18.50;59.20;;;;;;4994871;28;20076;-78
2022/06/23 00:27:58;;;;;;;1.33;0.95;;;18.60;59.40;;;;;;4977661;28;21821;-79
2022/06/23 00:30:34;;;;;;;2.60;1.17;;;18.50;59.40;;;;;;4994468;28;20049;-79
2022/06/23 00:33:16;;;;;;;2.25;1.05;;;18.50;59.60;;;;;;4994181;28;20405;-78
2022/06/23 00:35:42;;;;;;;1.17;0.90;;;18.60;59.80;;;;;;4998036;28;20531;-79
2022/06/23 00:38:24;;;;;;;1.17;0.80;;;18.50;59.80;;;;;;4999978;28;20050;-78
2022/06/23 00:40:50;;;;;;;1.55;0.90;;;18.50;59.90;;;;;;4990245;28;20454;-78
2022/06/23 00:43:17;;;;;;;0.80;0.80;;;18.50;60.00;;;;;;4994074;28;20084;-78
2022/06/23 00:46:06;;;;;;;1.00;0.90;;;18.40;60.00;;;;;;4961874;28;20046;-78
2022/06/23 00:48:40;;;;;;;0.95;0.85;;;18.40;60.20;;;;;;4998448;28;20042;-79
2022/06/23 00:51:36;;;;;;;1.02;1.00;;;18.30;60.30;;;;;;4978236;28;20049;-79
2022/06/23 00:54:09;;;;;;;2.30;0.90;;;18.30;60.50;;;;;;5015178;28;20125;-78
2022/06/23 00:57:02;;;;;;;1.35;0.80;;;18.30;60.60;;;;;;5014989;28;20034;-78
2022/06/23 00:59:43;;;;;;;1.88;1.00;;;18.30;60.80;;;;;;4967645;28;20038;-78
2022/06/23 01:02:17;;;;;;;1.17;0.80;;;18.20;60.80;;;;;;5015162;28;20085;-79
2022/06/23 01:04:53;;;;;;;1.58;0.90;;;18.20;60.80;;;;;;4982178;28;20034;-79
2022/06/23 01:07:52;;;;;;;0.75;0.75;;;18.10;60.90;;;;;;5014963;28;20054;-79
2022/06/23 01:10:40;;;;;;;0.95;0.70;;;18.10;61.10;;;;;;4997294;28;20509;-79
2022/06/23 01:13:43;;;;;;;0.93;0.80;;;18.10;61.20;;;;;;4996858;28;20042;-78
2022/06/23 01:16:17;;;;;;;0.88;0.70;;;18.10;61.40;;;;;;4993495;28;20572;-79
2022/06/23 01:19:03;;;;;;;1.05;0.70;;;18.00;61.40;;;;;;4996488;28;20034;-79
2022/06/23 01:21:36;;;;;;;0.75;0.73;;;18.00;61.40;;;;;;5014721;28;20128;-79
2022/06/23 01:24:23;;;;;;;1.20;0.90;;;17.90;61.50;;;;;;4997944;28;20046;-78
2022/06/23 01:27:02;;;;;;;1.20;0.65;;;18.00;61.70;;;;;;4997733;28;20406;-78
2022/06/23 01:29:44;;;;;;;0.80;0.73;;;18.00;61.80;;;;;;4996350;28;20589;-79
2022/06/23 01:32:23;;;;;;;0.95;0.85;;;17.90;61.70;;;;;;5014607;28;20042;-78
2022/06/23 01:35:21;;;;;;;0.80;0.80;;;17.90;61.80;;;;;;4996439;28;20428;-79
2022/06/23 01:37:55;;;;;;;0.90;0.70;;;17.90;61.90;;;;;;5014305;28;20095;-79
2022/06/23 01:40:34;;;;;;;1.05;0.80;;;17.90;62.00;;;;;;5014661;28;20046;-79
2022/06/23 01:43:20;;;;;;;1.23;0.80;;;17.80;62.00;;;;;;5014722;28;20470;-78
2022/06/23 01:45:55;;;;;;;0.80;0.70;;;17.80;62.20;;;;;;4996973;28;20073;-79
2022/06/23 01:51:22;;;;;;;1.70;0.70;;;17.80;62.50;;;;;;4998611;28;20120;-79
2022/06/23 01:53:50;;;;;;;0.70;0.70;;;17.70;62.60;;;;;;5014245;28;20482;-78
2022/06/23 01:56:41;;;;;;;1.08;0.60;;;17.70;62.60;;;;;;4996794;28;20030;-79
2022/06/23 01:59:33;;;;;;;0.57;0.57;;;17.60;62.70;;;;;;4983464;28;20053;-79
2022/06/23 02:02:20;;;;;;;0.80;0.65;;;17.60;62.80;;;;;;4996693;28;20637;-79
2022/06/23 02:05:10;;;;;;;1.35;0.90;;;17.60;62.90;;;;;;4996453;28;20529;-79
2022/06/23 02:07:46;;;;;;;0.80;0.80;;;17.50;63.60;;;;;;4995087;28;20590;-79
2022/06/23 02:10:33;;;;;;;1.60;1.00;;;17.50;63.00;;;;;;5013836;28;20042;-79
2022/06/23 02:13:24;;;;;;;1.92;0.90;;;17.40;63.20;;;;;;5013967;28;20038;-78
2022/06/23 02:16:11;;;;;;;0.60;0.60;;;17.40;63.20;;;;;;5013853;28;20038;-79
2022/06/23 02:18:59;;;;;;;1.02;0.82;;;17.40;63.20;;;;;;4995529;28;20069;-79
2022/06/23 02:21:33;;;;;;;1.20;0.88;;;17.40;63.30;;;;;;4996011;28;20502;-79
2022/06/23 02:24:07;;;;;;;0.80;0.80;;;17.40;63.40;;;;;;5014018;28;20049;-79
2022/06/23 02:26:37;;;;;;;2.60;0.88;;;17.40;63.50;;;;;;4977967;28;20445;-79
2022/06/23 02:29:13;;;;;;;1.17;0.98;;;17.30;63.60;;;;;;5014191;28;20048;-79
2022/06/23 02:31:53;;;;;;;1.00;0.90;;;17.30;63.70;;;;;;4995696;28;20057;-78
2022/06/23 02:34:34;;;;;;;1.45;1.00;;;17.20;63.70;;;;;;5013836;28;20045;-79
2022/06/23 02:37:38;;;;;;;1.05;0.80;;;17.30;63.80;;;;;;4980467;28;20124;-79
2022/06/23 02:40:05;;;;;;;1.10;0.80;;;17.30;63.80;;;;;;5013554;28;20038;-79
2022/06/23 02:42:37;;;;;;;0.82;0.73;;;17.20;63.70;;;;;;5013719;28;20026;-79
2022/06/23 02:45:24;;;;;;;0.80;0.73;;;17.30;63.90;;;;;;5010531;28;20433;-78
2022/06/23 02:48:20;;;;;;;0.80;0.80;;;17.30;64.00;;;;;;4996025;28;20042;-79
2022/06/23 02:51:13;;;;;;;0.73;0.70;;;17.20;64.10;;;;;;5013241;28;20038;-79
2022/06/23 02:54:19;;;;;;;0.85;0.70;;;17.20;64.10;;;;;;4995943;28;20045;-79
2022/06/23 02:57:19;;;;;;;1.45;0.73;;;17.20;64.20;;;;;;4970686;28;20128;-79
2022/06/23 03:00:06;;;;;;;0.70;0.70;;;17.10;64.20;;;;;;5010526;28;20053;-78
2022/06/23 03:03:01;;;;;;;1.85;0.60;;;17.10;64.30;;;;;;5013142;28;20124;-78
2022/06/23 03:05:46;;;;;;;1.42;0.80;;;17.10;64.40;;;;;;4994674;28;20509;-79
2022/06/23 03:08:29;;;;;;;0.73;0.57;;;17.00;64.40;;;;;;4995419;28;20038;-78
2022/06/23 03:11:02;;;;;;;1.13;0.80;;;17.10;64.40;;;;;;4995960;28;20045;-78
2022/06/23 03:13:50;;;;;;;0.65;0.65;;;17.10;64.50;;;;;;4995221;28;20527;-79
2022/06/23 03:16:27;;;;;;;1.58;0.82;;;17.00;64.50;;;;;;5013093;28;20042;-79
2022/06/23 03:19:02;;;;;;;0.73;0.73;;;17.00;64.60;;;;;;5012674;28;20042;-79
2022/06/23 03:21:46;;;;;;;1.10;0.95;;;17.00;64.60;;;;;;4995065;28;20129;-79
2022/06/23 03:24:24;;;;;;;0.70;0.70;;;16.90;64.60;;;;;;5012726;28;20465;-79
2022/06/23 03:26:56;;;;;;;0.77;0.77;;;16.90;64.70;;;;;;5012738;28;20560;-79
2022/06/23 03:29:40;;;;;;;1.10;0.90;;;17.00;64.80;;;;;;4961825;28;20030;-79
2022/06/23 03:32:14;;;;;;;1.30;0.90;;;17.00;64.80;;;;;;5012736;28;20436;-79
2022/06/23 03:34:57;;;;;;;0.68;0.60;;;16.90;64.90;;;;;;4993081;28;20037;-78
2022/06/23 03:37:37;;;;;;;0.93;0.57;;;16.80;64.90;;;;;;5012733;28;20053;-78
2022/06/23 03:43:08;;;;;;;1.27;0.80;;;16.80;65.00;;;;;;4995921;28;20052;-78
2022/06/23 03:45:47;;;;;;;1.08;0.90;;;16.80;65.20;;;;;;5013137;28;20053;-79
2022/06/23 03:48:23;;;;;;;0.82;0.82;;;16.80;65.10;;;;;;4992841;28;20108;-78
2022/06/23 03:51:06;;;;;;;0.77;0.73;;;16.80;65.10;;;;;;5012793;28;20107;-79
2022/06/23 03:53:43;;;;;;;0.90;0.80;;;16.90;65.20;;;;;;4995812;28;20049;-78
2022/06/23 03:56:17;;;;;;;0.90;0.65;;;16.80;65.20;;;;;;4977970;28;20489;-78
2022/06/23 03:59:02;;;;;;;0.80;0.70;;;16.80;65.20;;;;;;4991461;28;20474;-78
2022/06/23 04:01:53;;;;;;;1.23;0.73;;;17.00;65.30;;;;;;5012758;28;20057;-78
2022/06/23 04:04:24;;;;;;;1.50;1.08;;;16.80;65.20;;;;;;4993690;28;20073;-78
2022/06/23 04:06:52;;;;;;;;;;;16.90;65.20;;;;;;5012592;28;20104;-78
2022/06/23 04:09:23;;;;;;;0.55;0.55;;;16.90;65.10;;;;;;5012150;28;19920;-78
2022/06/23 04:12:10;;;;;;;1.08;0.93;;;17.00;65.10;;;;;;4994814;28;20050;-78
2022/06/23 04:14:44;;;;;;;0.88;0.77;;;16.90;65.10;;;;;;4994752;28;20413;-78
2022/06/23 04:17:34;;;;;;;0.88;0.82;;;16.90;65.10;;;;;;4995535;28;20045;-78
2022/06/23 04:20:09;;;;;;;0.85;0.80;;;16.90;65.10;;;;;;4996258;28;20124;-78
2022/06/23 04:22:49;;;;;;;1.65;1.00;;;16.90;65.10;;;;;;5011653;28;20034;-79
2022/06/23 04:25:24;;;;;;;1.00;0.90;;;17.00;65.10;;;;;;5012428;28;20037;-78
2022/06/23 04:27:55;;;;;;;0.80;0.80;;;17.00;65.10;;;;;;4975476;28;20750;-78
2022/06/23 04:30:34;;;;;;;1.45;0.90;;;17.00;65.10;;;;;;5012245;28;20062;-80
2022/06/23 04:33:04;;;;;;;0.63;0.63;;;17.00;65.10;;;;;;4971072;28;20039;-78
2022/06/23 04:35:35;;;;;;;1.10;1.00;;;17.00;65.10;;;;;;4955563;28;20042;-79
2022/06/23 04:38:16;;;;;;;0.88;0.77;;;17.00;65.10;;;;;;4956112;28;20046;-80
2022/06/23 04:40:57;;;;;;;1.13;1.00;;;17.00;65.10;;;;;;4954122;28;20050;-80
2022/06/23 04:43:39;;;;;;;0.98;0.90;;;17.00;65.20;;;;;;4954562;28;20047;-80
2022/06/23 04:46:11;;;;;;;0.80;0.80;;;17.10;65.30;;;;;;4954867;28;20160;-80
2022/06/23 04:48:48;;;;;;;2.25;0.88;;;17.20;65.20;;;;;;4970934;28;20038;-79
2022/06/23 04:51:29;;;;;;;0.93;0.90;;;17.20;65.20;;;;;;4956285;28;20034;-78
2022/06/23 04:54:06;;;;;;;1.35;1.00;;;17.20;65.20;;;;;;4958429;28;20078;-79
2022/06/23 04:56:45;;;;;;;0.93;0.68;;;17.20;65.10;;;;;;4958057;28;20142;-79
2022/06/23 04:59:25;;;;;;;1.23;0.80;;;17.20;65.10;;;;;;4941487;28;20051;-80
2022/06/23 05:01:53;;;;;;;0.85;0.80;;;17.40;65.10;;;;;;4973893;28;20050;-78
2022/06/23 05:04:27;;;;;;;0.70;0.70;;;17.40;65.00;;;;;;4980812;28;20042;-79
2022/06/23 05:06:56;;;;;;;1.75;0.98;;;17.50;65.00;;;;;;5013919;28;20038;-79
2022/06/23 05:09:29;;;;;;;1.27;1.00;;;17.50;64.80;;;;;;4996372;28;20034;-78
2022/06/23 05:12:01;;;;;;;0.80;0.80;;;17.60;64.80;;;;;;4996718;28;20046;-79
2022/06/23 05:14:38;;;;;;;0.82;0.80;;;17.60;64.70;;;;;;5013234;28;20034;-79
2022/06/23 05:17:16;;;;;;;0.70;0.70;;;17.70;64.60;;;;;;5013842;28;20049;-78
2022/06/23 05:19:43;;;;;;;1.05;0.75;;;17.70;64.50;;;;;;4993903;28;20050;-78
2022/06/23 05:22:22;;;;;;;1.10;0.95;;;17.80;64.40;;;;;;4980261;28;20034;-78
2022/06/23 05:24:50;;;;;;;1.50;0.95;;;18.00;64.30;;;;;;4995701;28;20037;-77
2022/06/23 05:27:24;;;;;;;1.10;0.80;;;18.10;64.20;;;;;;5011556;28;20042;-77
2022/06/23 05:29:58;;;;;;;1.02;0.88;;;18.20;64.00;;;;;;4994236;28;20470;-77
2022/06/23 05:32:28;;;;;;;1.08;0.90;;;18.20;63.80;;;;;;4994835;28;20515;-77
2022/06/23 05:35:09;;;;;;;1.30;0.93;;;18.40;63.80;;;;;;5016875;28;20044;-77
2022/06/23 05:37:49;;;;;;;1.77;0.70;;;18.40;63.60;;;;;;5013435;28;20504;-77
2022/06/23 05:40:33;;;;;;;1.38;0.77;;;18.60;63.50;;;;;;5015852;28;20064;-77
2022/06/23 05:43:01;;;;;;;0.90;0.90;;;18.70;63.30;;;;;;5013841;28;21065;-78
2022/06/23 05:45:38;;;;;;;1.52;0.88;;;18.70;63.20;;;;;;5013516;28;20042;-77
2022/06/23 05:48:07;;;;;;;1.00;0.85;;;18.80;63.20;;;;;;4995567;28;20141;-78
2022/06/23 05:50:43;;;;;;;1.27;1.00;;;18.90;63.20;;;;;;4998088;28;20065;-78
2022/06/23 05:53:28;;;;;;;1.98;1.10;;;18.90;63.30;;;;;;5014423;28;20077;-78
2022/06/23 05:56:05;;;;;;;1.17;1.05;;;18.90;63.30;;;;;;5015987;28;20046;-78
2022/06/23 05:58:44;;;;;;;1.13;0.80;;;19.00;63.30;;;;;;5014361;28;20906;-77
2022/06/23 06:01:29;;;;;;;1.05;0.88;;;19.00;63.30;;;;;;4996853;28;20496;-77
2022/06/23 06:04:11;;;;;;;1.00;0.90;;;19.10;63.30;;;;;;5018191;28;20038;-81
2022/06/23 06:06:37;;;;;;;1.02;0.90;;;19.10;63.20;;;;;;5018045;28;20054;-77
2022/06/23 06:11:51;;;;;;;1.60;0.90;;;19.20;63.10;;;;;;5004909;28;20038;-78
2022/06/23 06:14:20;;;;;;;1.02;0.70;;;19.30;63.00;;;;;;5000928;28;20101;-78
2022/06/23 06:16:46;;;;;;;0.80;0.80;;;19.40;63.10;;;;;;5020650;28;20065;-78
2022/06/23 06:19:16;;;;;;;1.17;0.90;;;19.50;63.00;;;;;;5004655;28;20053;-77
2022/06/23 06:21:43;;;;;;;1.08;0.70;;;19.50;62.80;;;;;;5020830;28;20049;-78
2022/06/23 06:24:20;;;;;;;1.48;1.15;;;19.60;62.70;;;;;;4989230;28;20573;-77
2022/06/23 06:26:51;;;;;;;1.17;0.75;;;19.70;62.60;;;;;;5009075;28;20054;-78
2022/06/23 06:29:19;;;;;;;;;;;19.70;62.50;;;;;;5011317;28;20042;-78
2022/06/23 06:31:54;;;;;;;0.73;0.70;;;19.80;62.50;;;;;;5002408;28;20003;-78
2022/06/23 06:34:28;;;;;;;0.80;0.70;;;19.90;62.20;;;;;;5025974;28;20081;-77
2022/06/23 06:36:54;;;;;;;1.10;0.90;;;20.00;62.00;;;;;;5006178;28;20137;-77
2022/06/23 06:39:35;;;;;;;1.10;0.90;;;20.20;61.90;;;;;;5019942;28;20081;-77
2022/06/23 06:42:06;;;;;;;0.80;0.68;;;20.20;61.70;;;;;;5006457;28;20038;-79
2022/06/23 06:44:35;;;;;;;1.00;0.80;;;20.40;61.60;;;;;;5027072;28;20072;-79
2022/06/23 06:47:02;;;;;;;1.23;0.77;;;20.40;61.40;;;;;;5026164;28;20046;-79
2022/06/23 06:49:30;;;;;;;0.60;0.60;;;20.70;61.30;;;;;;5024910;28;20098;-79
2022/06/23 06:51:57;;;;;;;0.80;0.80;;;20.70;61.10;;;;;;5004776;28;20041;-79
2022/06/23 06:54:30;;;;;;;0.80;0.80;;;20.80;61.00;;;;;;5024142;28;20030;-79
2022/06/23 06:57:01;;;;;;;0.80;0.80;;;21.00;60.80;;;;;;5005696;28;20030;-79
2022/06/23 06:59:38;;;;;;;1.00;0.80;;;21.20;60.60;;;;;;5027824;28;20038;-79
2022/06/23 07:02:13;;;;;;;1.17;0.80;;;21.30;60.50;;;;;;5007805;28;20088;-79
2022/06/23 07:04:49;;;;;;;0.85;0.65;;;21.50;60.30;;;;;;5023809;28;20093;-80
2022/06/23 07:07:22;;;;;;;0.98;0.80;;;21.60;60.10;;;;;;5001607;28;20047;-79
2022/06/23 07:09:57;;;;;;;0.60;0.60;;;21.90;59.90;;;;;;5002082;28;20041;-80
2022/06/23 07:12:30;;;;;;;0.60;0.60;;;22.10;59.70;;;;;;5005697;28;20038;-80
2022/06/23 07:15:08;;;;;;;0.55;0.50;;;22.30;59.50;;;;;;5028161;28;20046;-79
2022/06/23 07:17:43;;;;;;;0.70;0.70;;;22.40;59.30;;;;;;5020124;28;20053;-78
2022/06/23 07:20:20;;;;;;;0.70;0.70;;;22.60;59.20;;;;;;4997575;28;20195;-79
2022/06/23 07:22:58;;;;;;;0.82;0.73;;;22.80;59.00;;;;;;5013593;28;20449;-79
2022/06/23 07:25:29;;;;;;;1.05;0.80;;;23.10;59.00;;;;;;5014288;28;20572;-79
2022/06/23 07:28:00;;;;;;;1.08;0.90;;;23.20;58.70;;;;;;4996534;28;20050;-79
2022/06/23 07:30:33;;;;;;;0.63;0.63;;;23.50;58.60;;;;;;5013968;28;20080;-80
2022/06/23 07:33:07;;;;;;;0.82;0.77;;;23.60;58.40;;;;;;5019655;28;20049;-79
2022/06/23 07:35:42;;;;;;;1.85;0.70;;;23.70;58.30;;;;;;5017372;28;20132;-79
2022/06/23 07:38:28;;;;;;;0.85;0.70;;;24.00;58.20;;;;;;5023364;28;20508;-79
2022/06/23 07:41:16;;;;;;;0.68;0.68;;;24.20;58.00;;;;;;4980296;28;20057;-79
2022/06/23 07:44:03;;;;;;;0.73;0.70;;;24.40;57.70;;;;;;4999358;28;20047;-79
2022/06/23 07:46:31;;;;;;;1.00;0.73;;;24.70;57.60;;;;;;5013748;28;20057;-79
2022/06/23 07:48:57;;;;;;;1.55;0.90;;;24.90;57.50;;;;;;5014826;28;20045;-79
2022/06/23 07:51:23;;;;;;;0.80;0.80;;;25.10;57.40;;;;;;5012976;28;20390;-79
2022/06/23 07:53:52;;;;;;;0.70;0.70;;;25.20;57.30;;;;;;4995075;28;20474;-79
2022/06/23 07:56:21;;;;;;;0.50;0.45;;;25.30;57.20;;;;;;5012828;28;20034;-79
2022/06/23 07:58:50;;;;;;;0.80;0.65;;;25.60;57.20;;;;;;4994958;28;20056;-79
2022/06/23 08:01:22;;;;;;;0.77;0.77;;;25.80;57.10;;;;;;5013043;28;20044;-78
2022/06/23 08:04:09;;;;;;;2.47;0.90;;;25.90;56.90;;;;;;4995669;28;20449;-79
2022/06/23 08:06:35;;;;;;;0.70;0.70;;;26.00;56.80;;;;;;5010836;28;20065;-79
2022/06/23 08:09:27;;;;;;;0.90;0.90;;;26.20;56.80;;;;;;5012366;28;20041;-79
2022/06/23 08:16:49;;;;;;;0.90;0.75;;;26.60;56.60;;;;;;5012264;28;20046;-79
2022/06/23 08:17:40;;;;;;;0.70;0.70;;;26.80;56.40;;;;;;4997881;28;20053;-80
2022/06/23 08:20:10;;;;;;;0.75;0.75;;;26.90;56.30;;;;;;4994205;28;20069;-79
2022/06/23 08:22:39;;;;;;;0.82;0.73;;;27.00;56.40;;;;;;5012944;28;20634;-80
2022/06/23 08:25:06;;;;;;;1.90;0.87;;;27.10;56.20;;;;;;5013579;28;20034;-80
2022/06/23 08:27:33;;;;;;;0.60;0.60;;;27.30;56.10;;;;;;4995552;28;20046;-79
2022/06/23 08:30:10;;;;;;;1.40;0.90;;;27.50;56.00;;;;;;5012896;28;20045;-80
2022/06/23 08:32:39;;;;;;;0.75;0.75;;;27.70;55.80;;;;;;5013563;28;20052;-79
2022/06/23 08:35:27;;;;;;;0.90;0.82;;;27.90;55.70;;;;;;5012836;28;20042;-80
2022/06/23 08:38:03;;;;;;;1.67;0.85;;;28.00;55.50;;;;;;4994678;28;20046;-80
2022/06/23 08:40:45;;;;;;;0.75;0.75;;;28.20;55.40;;;;;;4978681;28;20526;-81
2022/06/23 08:43:32;;;;;;;0.73;0.73;;;28.40;55.20;;;;;;5011793;28;20033;-80
2022/06/23 08:46:20;;;;;;;0.75;0.70;;;28.50;55.20;;;;;;5012193;28;20064;-80
2022/06/23 08:49:16;;;;;;;1.63;1.00;;;28.50;55.10;;;;;;5010026;28;20134;-80
2022/06/23 08:52:07;;;;;;;1.50;0.80;;;28.60;55.30;;;;;;4997990;28;20111;-80
2022/06/23 08:54:45;;;;;;;0.80;0.80;;;28.60;55.20;;;;;;4994361;28;20416;-80
2022/06/23 08:57:24;;;;;;;1.00;0.80;;;28.80;55.10;;;;;;5012669;28;20050;-81
2022/06/23 09:00:13;;;;;;;0.68;0.68;;;28.90;55.00;;;;;;4995633;28;20050;-80
2022/06/23 09:02:59;;;;;;;0.95;0.70;;;29.00;55.10;;;;;;4994477;28;20557;-80
2022/06/23 09:05:52;;;;;;;0.80;0.80;;;29.00;55.10;;;;;;4976902;28;20374;-79
2022/06/23 09:08:37;;;;;;;1.23;0.98;;;29.20;55.00;;;;;;5011780;28;20057;-80
2022/06/23 09:11:18;;;;;;;0.93;0.90;;;29.30;55.00;;;;;;4997830;28;20126;-80
2022/06/23 09:14:18;;;;;;;1.15;0.95;;;29.30;54.90;;;;;;4994583;28;20042;-81
2022/06/23 09:17:12;;;;;;;1.00;0.82;;;29.20;55.20;;;;;;5013410;28;20050;-80
2022/06/23 09:20:07;;;;;;;0.88;0.82;;;29.20;55.20;;;;;;5014714;28;20049;-80
2022/06/23 09:23:04;;;;;;;0.80;0.80;;;29.40;55.00;;;;;;5013911;28;20382;-80
2022/06/23 09:25:56;;;;;;;1.00;0.80;;;29.60;54.80;;;;;;5000389;28;20042;-80
2022/06/23 09:28:49;;;;;;;1.25;1.00;;;29.80;54.60;;;;;;5000280;28;20042;-78
2022/06/23 09:31:34;;;;;;;1.60;0.88;;;29.80;54.40;;;;;;5015218;28;20115;-81
2022/06/23 09:34:20;;;;;;;0.75;0.75;;;30.00;54.40;;;;;;4997324;28;20045;-77
2022/06/23 09:37:26;;;;;;;0.75;0.75;;;30.10;54.20;;;;;;5015201;28;20034;-80
2022/06/23 09:40:25;;;;;;;0.73;0.70;;;30.30;54.10;;;;;;5001681;28;20042;-80
2022/06/23 09:43:25;;;;;;;0.90;0.90;;;30.10;54.10;;;;;;5014412;28;20482;-80
2022/06/23 09:45:58;;;;;;;;;;;30.20;54.10;;;;;;5011702;28;20187;-79
2022/06/23 09:48:49;;;;;;;0.80;0.63;;;30.40;54.10;;;;;;5014751;28;20379;-81
2022/06/23 09:51:29;;;;;;;;;;;30.50;53.90;;;;;;4997459;28;20482;-80
2022/06/23 09:54:25;;;;;;;0.80;0.80;;;30.60;53.90;;;;;;5011977;28;19967;-79
2022/06/23 09:57:26;;;;;;;1.13;0.98;;;30.60;53.80;;;;;;4999679;28;20046;-79
2022/06/23 10:00:06;;;;;;;0.73;0.73;;;30.70;53.60;;;;;;4981888;28;20046;-80
2022/06/23 10:02:51;;;;;;;0.80;0.80;;;30.70;53.60;;;;;;4993206;28;20038;-80
2022/06/23 10:05:34;;;;;;;0.73;0.73;;;30.70;53.60;;;;;;5014361;28;20402;-78
2022/06/23 10:08:24;;;;;;;0.50;0.50;;;30.90;53.50;;;;;;4998255;28;20046;-79
2022/06/23 10:11:09;;;;;;;0.98;0.70;;;31.00;53.20;;;;;;4979957;28;20097;-80
2022/06/23 10:14:04;;;;;;;0.90;0.88;;;31.10;52.90;;;;;;4996378;28;20042;-80
2022/06/23 10:17:09;;;;;;;1.35;0.80;;;31.20;52.90;;;;;;4998445;28;20042;-80
2022/06/23 10:19:48;;;;;;;0.73;0.73;;;31.20;53.00;;;;;;5012222;28;20041;-80
2022/06/23 10:22:45;;;;;;;0.60;0.60;;;31.10;52.90;;;;;;5013436;28;20478;-80
2022/06/23 10:25:49;;;;;;;0.70;0.70;;;31.40;52.90;;;;;;4999229;28;20490;-81
2022/06/23 10:28:36;;;;;;;0.95;0.88;;;31.60;52.60;;;;;;5013829;28;20046;-80
2022/06/23 10:31:20;;;;;;;0.60;0.60;;;31.70;52.50;;;;;;4981527;28;20030;-81
2022/06/23 10:34:09;;;;;;;0.57;0.57;;;31.70;52.50;;;;;;4997755;28;20104;-80
2022/06/23 10:37:08;;;;;;;1.45;1.13;;;31.60;52.50;;;;;;5013352;28;20100;-80
2022/06/23 10:40:09;;;;;;;1.10;1.00;;;31.60;52.50;;;;;;4999103;28;20045;-80
2022/06/23 10:43:05;;;;;;;0.90;0.80;;;31.30;52.70;;;;;;5013451;28;20041;-80
2022/06/23 10:45:43;;;;;;;1.00;1.00;;;31.30;52.90;;;;;;4998068;28;20454;-81
2022/06/23 10:48:40;;;;;;;1.13;1.02;;;31.20;52.70;;;;;;5013969;28;20042;-78
2022/06/23 10:51:30;;;;;;;1.17;1.05;;;31.30;52.60;;;;;;4995777;28;20516;-81
2022/06/23 10:54:34;;;;;;;1.10;1.00;;;31.30;52.40;;;;;;5013307;28;20106;-81
2022/06/23 10:57:30;;;;;;;2.67;1.20;;;31.30;52.30;;;;;;5013312;28;20469;-81
2022/06/23 11:00:18;;;;;;;1.42;1.10;;;31.40;52.40;;;;;;4995732;28;20501;-80
2022/06/23 11:03:13;;;;;;;1.52;1.17;;;31.30;52.30;;;;;;4999494;28;20050;-82
2022/06/23 11:06:11;;;;;;;1.95;1.20;;;31.50;52.00;;;;;;4979480;28;20050;-81
2022/06/23 11:09:11;;;;;;;1.05;0.95;;;31.40;52.00;;;;;;4995968;28;20421;-81
2022/06/23 11:12:05;;;;;;;0.70;0.70;;;31.60;52.00;;;;;;5009444;28;20096;-81
2022/06/23 11:14:48;;;;;;;1.67;0.95;;;31.70;51.80;;;;;;4997531;28;20100;-81
2022/06/23 11:17:29;;;;;;;1.23;0.90;;;31.90;51.70;;;;;;5011026;28;20042;-81
2022/06/23 11:20:22;;;;;;;1.00;0.90;;;31.90;51.60;;;;;;5013096;28;20058;-79
2022/06/23 11:23:00;;;;;;;0.80;0.80;;;31.80;51.50;;;;;;5012789;28;20112;-81
2022/06/23 11:25:51;;;;;;;1.00;0.90;;;32.00;51.60;;;;;;4995146;28;20048;-81
2022/06/23 11:28:43;;;;;;;1.02;0.95;;;32.00;51.40;;;;;;5013054;28;20042;-79
2022/06/23 11:31:33;;;;;;;1.08;0.80;;;32.10;51.30;;;;;;4976242;28;20034;-79
2022/06/23 11:34:23;;;;;;;1.15;0.90;;;32.20;51.30;;;;;;5011646;28;20038;-78
2022/06/23 11:37:13;;;;;;;0.75;0.70;;;32.30;51.30;;;;;;5012716;28;20045;-81
2022/06/23 11:40:07;;;;;;;0.80;0.80;;;32.40;51.10;;;;;;5012909;28;20092;-81
2022/06/23 11:43:04;;;;;;;0.80;0.80;;;32.50;50.90;;;;;;4982084;28;20127;-81
2022/06/23 11:45:54;;;;;;;1.02;0.93;;;32.60;51.00;;;;;;4991966;28;20042;-80
2022/06/23 11:48:45;;;;;;;0.88;0.80;;;32.60;50.90;;;;;;4994479;28;20449;-81
2022/06/23 11:51:35;;;;;;;0.80;0.80;;;32.50;50.90;;;;;;4996006;28;20052;-80
2022/06/23 11:54:35;;;;;;;0.60;0.60;;;32.30;51.20;;;;;;5011287;28;20045;-79
2022/06/23 11:57:36;;;;;;;1.27;0.90;;;32.10;51.50;;;;;;5012398;28;20099;-79
2022/06/23 15:05:45;;;;;;;0.52;0.52;;;30.40;49.20;;;;;;5151020;27;20191;-78
2022/06/23 15:08:35;;;;;;;0.63;0.63;;;30.50;50.10;;;;;;5111307;28;20122;-78
2022/06/23 15:11:23;;;;;;;0.60;0.60;;;30.50;50.70;;;;;;5129652;28;20046;-78
2022/06/23 15:13:57;;;;;;;0.85;0.70;;;30.60;51.20;;;;;;5117086;28;20056;-83
2022/06/23 15:16:47;;;;;;;0.70;0.65;;;30.50;51.50;;;;;;5080644;28;20035;-83
2022/06/23 15:19:38;;;;;;;1.00;0.60;;;30.40;51.80;;;;;;5114243;28;20040;-82
2022/06/23 15:25:28;;;;;;;0.73;0.73;;;30.30;52.40;;;;;;5118031;28;20401;-81
2022/06/23 15:28:16;;;;;;;0.80;0.73;;;30.30;52.50;;;;;;5113926;28;20459;-83
2022/06/23 15:31:05;;;;;;;0.73;0.73;;;30.30;52.50;;;;;;5111631;28;20048;-82
2022/06/23 15:33:43;;;;;;;0.50;0.50;;;30.30;52.60;;;;;;5129808;28;20089;-82
2022/06/23 15:36:23;;;;;;;1.00;0.90;;;30.20;52.60;;;;;;5129467;28;20092;-82
2022/06/23 15:39:16;;;;;;;0.70;0.70;;;30.10;52.80;;;;;;5109696;28;20046;-82
2022/06/23 15:41:59;;;;;;;0.63;0.60;;;30.00;52.90;;;;;;5129748;28;20047;-82
2022/06/23 15:44:50;;;;;;;0.70;0.70;;;29.90;53.10;;;;;;5130012;28;20054;-82
2022/06/23 15:47:40;;;;;;;0.80;0.80;;;29.90;53.20;;;;;;5111503;28;20110;-82
2022/06/23 15:50:19;;;;;;;0.70;0.70;;;29.80;53.40;;;;;;5115481;28;20036;-83
2022/06/23 15:53:01;;;;;;;1.42;0.70;;;29.60;53.60;;;;;;5128759;28;20095;-82
2022/06/23 15:55:52;;;;;;;1.38;0.80;;;29.50;54.00;;;;;;5141344;28;20031;-83
2022/06/23 15:58:26;;;;;;;1.45;0.80;;;29.30;54.50;;;;;;5131382;28;20047;-83
2022/06/23 16:01:14;;;;;;;2.03;1.05;;;28.90;55.10;;;;;;5085240;28;20094;-81
2022/06/23 16:03:47;;;;;;;3.25;1.42;;;28.20;56.30;;;;;;5141824;28;20043;-81
2022/06/23 16:06:24;;;;;;;3.72;1.90;;;27.20;58.30;;;;;;5111611;28;20118;-81
2022/06/23 16:08:54;;;;;;;2.33;1.40;;;26.00;60.60;;;;;;5113912;28;20661;-81
2022/06/23 16:11:29;;;;;;;1.92;1.30;;;25.00;62.50;;;;;;5133731;28;20070;-78
2022/06/23 16:14:05;;;;;;;5.65;1.10;;;24.40;63.80;;;;;;5145983;28;20099;-78
2022/06/23 16:16:41;;;;;;;2.67;0.93;;;24.00;64.40;;;;;;5141331;28;20105;-78
2022/06/23 16:19:18;;;;;;;0.68;0.68;;;23.90;64.80;;;;;;5119888;28;20102;-78
2022/06/23 16:21:51;;;;;;;0.95;0.80;;;23.80;64.70;;;;;;5118787;28;20049;-77
2022/06/23 16:24:32;;;;;;;0.90;0.70;;;23.80;64.70;;;;;;5128006;28;20043;-77
2022/06/23 16:27:21;;;;;;;0.95;0.60;;;23.80;64.50;;;;;;5118868;28;20038;-77
2022/06/23 16:29:53;;;;;;;2.25;0.85;;;23.80;64.40;;;;;;5082203;28;20397;-78
2022/06/23 16:32:42;;;;;;;0.68;0.60;;;23.80;64.50;;;;;;5080902;28;20063;-78
2022/06/23 16:35:28;;;;;;;0.77;0.60;;;23.70;64.60;;;;;;5107698;28;20095;-78
2022/06/23 16:38:06;;;;;;;0.52;0.50;;;23.80;64.70;;;;;;5114415;28;20047;-78
2022/06/23 16:40:50;;;;;;;0.95;0.65;;;23.90;64.80;;;;;;5102991;28;20051;-77
2022/06/23 16:43:21;;;;;;;0.63;0.60;;;23.80;64.70;;;;;;5090178;28;20050;-79
2022/06/23 16:46:18;;;;;;;0.57;0.50;;;23.80;64.80;;;;;;5125041;28;20111;-78
2022/06/23 16:49:05;;;;;;;0.95;0.60;;;23.80;65.00;;;;;;5135810;28;20035;-78
2022/06/23 16:51:57;;;;;;;0.93;0.60;;;23.90;64.90;;;;;;5129951;28;20093;-77
2022/06/23 16:54:36;;;;;;;0.82;0.50;;;23.90;64.80;;;;;;5116174;28;20092;-78
2022/06/23 16:57:17;;;;;;;0.88;0.50;;;24.00;64.90;;;;;;5114607;28;20489;-78
2022/06/23 16:59:51;;;;;;;0.50;0.50;;;24.10;65.00;;;;;;5116253;28;20058;-79
2022/06/23 17:02:41;;;;;;;1.20;0.52;;;24.20;65.00;;;;;;5097625;28;20119;-79
2022/06/23 17:05:24;;;;;;;0.63;0.50;;;24.40;64.90;;;;;;5096156;28;20058;-79
2022/06/23 17:08:05;;;;;;;0.95;0.63;;;24.50;64.80;;;;;;5113291;28;20488;-80
2022/06/23 17:10:43;;;;;;;1.33;0.70;;;24.60;65.00;;;;;;5114516;28;20044;-78
2022/06/23 17:13:19;;;;;;;0.98;0.60;;;24.70;64.90;;;;;;5114480;28;20040;-78
2022/06/23 17:15:51;;;;;;;0.57;0.50;;;24.90;65.00;;;;;;5114897;28;20161;-78
2022/06/23 17:18:25;;;;;;;0.70;0.70;;;25.00;65.00;;;;;;5095935;28;20032;-78
2022/06/23 17:20:58;;;;;;;0.60;0.60;;;25.10;65.00;;;;;;5114340;28;20047;-78